Time;durP1;ratioP1;P1;durP2;ratioP2;P2;SDS_P1;SDS_P2;PMS_P1;PMS_P2;Temp;Humidity;BMP_temperature;BMP_pressure;BME280_temperature;BME280_humidity;BME280_pressure;Samples;Min_cycle;Max_cycle;Signal;HPM_P1;HPM_P2
2024/03/16 00:00:11;;;;;;;6.07;3.83;;;;;;;;;;695765;28;1003;-68
2024/03/16 00:00:31;;;;;;;7.50;3.80;;;;;;;;;;695801;28;980;-68
2024/03/16 00:00:52;;;;;;;8.70;3.77;;;;;;;;;;694979;28;1195;-69
2024/03/16 00:01:12;;;;;;;8.17;3.87;;;;;;;;;;695811;28;4425;-67
2024/03/16 00:01:33;;;;;;;6.68;3.58;;;;;;;;;;695830;28;2585;-65
2024/03/16 00:01:53;;;;;;;7.03;3.77;;;;;;;;;;696699;28;781;-68
2024/03/16 00:02:14;;;;;;;6.93;3.80;;;;;;;;;;696487;28;905;-68
2024/03/16 00:02:35;;;;;;;7.70;3.75;;;;;;;;;;695805;28;1809;-68
2024/03/16 00:02:57;;;;;;;7.63;3.60;;;;;;;;;;697833;28;873;-68
2024/03/16 00:03:18;;;;;;;7.65;3.80;;;;;;;;;;695686;28;1516;-67
2024/03/16 00:03:39;;;;;;;7.50;3.70;;;;;;;;;;693893;28;1885;-68
2024/03/16 00:03:59;;;;;;;7.68;3.67;;;;;;;;;;695929;28;4534;-68
2024/03/16 00:04:20;;;;;;;7.50;3.57;;;;;;;;;;698043;28;869;-69
2024/03/16 00:04:43;;;;;;;6.50;3.50;;;;;;;;;;695974;28;1095;-68
2024/03/16 00:05:04;;;;;;;7.80;4.13;;;;;;;;;;696606;28;893;-68
2024/03/16 00:05:24;;;;;;;6.25;3.45;;;;;;;;;;693982;28;1003;-68
2024/03/16 00:05:45;;;;;;;6.85;3.50;;;;;;;;;;694743;28;2530;-68
2024/03/16 00:06:05;;;;;;;7.45;3.60;;;;;;;;;;697251;28;852;-67
2024/03/16 00:06:26;;;;;;;7.73;3.40;;;;;;;;;;696039;28;1159;-67
2024/03/16 00:06:46;;;;;;;7.05;3.00;;;;;;;;;;696083;28;2591;-68
2024/03/16 00:07:06;;;;;;;7.33;3.20;;;;;;;;;;692058;28;4289;-67
2024/03/16 00:07:27;;;;;;;8.10;3.40;;;;;;;;;;691138;28;1232;-68
2024/03/16 00:07:47;;;;;;;7.75;3.10;;;;;;;;;;689347;28;1758;-68
2024/03/16 00:08:08;;;;;;;6.23;3.17;;;;;;;;;;691724;28;877;-68
2024/03/16 00:08:29;;;;;;;5.32;2.95;;;;;;;;;;691400;28;888;-66
2024/03/16 00:08:50;;;;;;;7.07;3.10;;;;;;;;;;692875;28;4518;-67
2024/03/16 00:09:10;;;;;;;8.93;3.20;;;;;;;;;;695649;28;932;-67
2024/03/16 00:09:31;;;;;;;7.88;2.95;;;;;;;;;;695510;28;1909;-68
2024/03/16 00:09:52;;;;;;;7.85;3.08;;;;;;;;;;695539;28;2331;-69
2024/03/16 00:10:12;;;;;;;7.93;3.17;;;;;;;;;;695405;28;4578;-69
2024/03/16 00:10:32;;;;;;;5.63;2.90;;;;;;;;;;695819;28;1364;-68
2024/03/16 00:10:52;;;;;;;5.43;3.00;;;;;;;;;;696413;28;853;-66
2024/03/16 00:11:13;;;;;;;6.13;3.07;;;;;;;;;;691776;28;1602;-68
2024/03/16 00:11:33;;;;;;;6.43;2.97;;;;;;;;;;689773;28;1802;-67
2024/03/16 00:11:54;;;;;;;5.47;2.80;;;;;;;;;;690959;28;1026;-68
2024/03/16 00:12:14;;;;;;;6.13;2.92;;;;;;;;;;690571;28;1148;-66
2024/03/16 00:12:35;;;;;;;8.17;2.70;;;;;;;;;;689589;28;1077;-68
2024/03/16 00:12:55;;;;;;;8.53;2.97;;;;;;;;;;690893;28;1505;-69
2024/03/16 00:13:16;;;;;;;7.27;2.90;;;;;;;;;;695874;28;4487;-68
2024/03/16 00:13:36;;;;;;;6.38;2.72;;;;;;;;;;693590;28;2321;-65
2024/03/16 00:13:57;;;;;;;6.63;2.90;;;;;;;;;;695536;28;1204;-69
2024/03/16 00:14:17;;;;;;;7.18;3.03;;;;;;;;;;696023;28;1368;-71
2024/03/16 00:14:38;;;;;;;8.23;3.17;;;;;;;;;;696568;28;1709;-67
2024/03/16 00:14:58;;;;;;;6.57;2.80;;;;;;;;;;695877;28;782;-67
2024/03/16 00:15:19;;;;;;;6.53;3.00;;;;;;;;;;693184;28;1276;-68
2024/03/16 00:15:39;;;;;;;6.90;3.00;;;;;;;;;;691525;28;2271;-68
2024/03/16 00:16:00;;;;;;;6.40;3.00;;;;;;;;;;692485;28;4313;-67
2024/03/16 00:16:20;;;;;;;6.18;2.83;;;;;;;;;;695583;28;941;-68
2024/03/16 00:16:40;;;;;;;6.32;3.05;;;;;;;;;;692837;28;2213;-67
2024/03/16 00:17:01;;;;;;;7.60;3.17;;;;;;;;;;697342;28;813;-68
2024/03/16 00:17:21;;;;;;;5.93;2.77;;;;;;;;;;695729;28;1514;-68
2024/03/16 00:17:41;;;;;;;5.30;2.90;;;;;;;;;;694912;28;1808;-68
2024/03/16 00:18:03;;;;;;;5.93;3.13;;;;;;;;;;696911;28;917;-69
2024/03/16 00:18:23;;;;;;;7.22;3.05;;;;;;;;;;696989;28;984;-68
2024/03/16 00:18:43;;;;;;;8.68;2.90;;;;;;;;;;694092;28;1811;-69
2024/03/16 00:19:04;;;;;;;6.93;2.70;;;;;;;;;;693056;28;4276;-70
2024/03/16 00:19:24;;;;;;;6.30;2.70;;;;;;;;;;696025;28;1281;-68
2024/03/16 00:19:45;;;;;;;5.18;2.60;;;;;;;;;;692534;28;1728;-68
2024/03/16 00:20:10;;;;;;;5.88;2.78;;;;;;;;;;695014;28;821;-67
2024/03/16 00:20:30;;;;;;;5.78;3.10;;;;;;;;;;691498;28;1226;-68
2024/03/16 00:20:51;;;;;;;6.43;3.50;;;;;;;;;;686360;28;1784;-67
2024/03/16 00:21:11;;;;;;;5.77;2.90;;;;;;;;;;687232;28;1642;-68
2024/03/16 00:21:31;;;;;;;5.80;2.92;;;;;;;;;;688995;28;887;-69
2024/03/16 00:21:51;;;;;;;5.80;2.90;;;;;;;;;;690426;28;1849;-68
2024/03/16 00:22:12;;;;;;;6.87;2.90;;;;;;;;;;691925;28;4492;-69
2024/03/16 00:22:32;;;;;;;7.22;3.20;;;;;;;;;;691960;28;1405;-69
2024/03/16 00:22:53;;;;;;;5.87;2.90;;;;;;;;;;693014;28;1858;-69
2024/03/16 00:23:13;;;;;;;5.38;2.70;;;;;;;;;;694884;28;1307;-68
2024/03/16 00:23:34;;;;;;;6.67;2.80;;;;;;;;;;694710;28;868;-68
2024/03/16 00:23:55;;;;;;;6.18;2.88;;;;;;;;;;693414;28;1095;-69
2024/03/16 00:24:15;;;;;;;5.20;2.70;;;;;;;;;;693910;28;872;-67
2024/03/16 00:24:35;;;;;;;5.40;2.70;;;;;;;;;;692824;28;2282;-68
2024/03/16 00:24:56;;;;;;;5.93;2.60;;;;;;;;;;694231;28;843;-68
2024/03/16 00:25:17;;;;;;;5.53;2.60;;;;;;;;;;696256;28;4382;-69
2024/03/16 00:25:38;;;;;;;5.53;2.65;;;;;;;;;;696214;28;1741;-69
2024/03/16 00:25:58;;;;;;;5.47;2.63;;;;;;;;;;699048;28;908;-68
2024/03/16 00:26:18;;;;;;;4.83;2.60;;;;;;;;;;698895;28;931;-69
2024/03/16 00:26:39;;;;;;;5.65;2.55;;;;;;;;;;697353;28;2550;-69
2024/03/16 00:26:59;;;;;;;5.72;2.53;;;;;;;;;;697089;28;1428;-68
2024/03/16 00:27:19;;;;;;;6.03;2.50;;;;;;;;;;697419;28;1381;-68
2024/03/16 00:27:40;;;;;;;4.90;2.80;;;;;;;;;;695924;28;1031;-68
2024/03/16 00:28:00;;;;;;;5.40;2.60;;;;;;;;;;696977;28;4241;-69
2024/03/16 00:28:21;;;;;;;5.40;2.53;;;;;;;;;;697427;28;832;-68
2024/03/16 00:28:41;;;;;;;5.87;2.60;;;;;;;;;;694268;28;2204;-67
2024/03/16 00:29:01;;;;;;;6.07;2.80;;;;;;;;;;695782;28;1228;-67
2024/03/16 00:29:21;;;;;;;5.90;2.50;;;;;;;;;;697691;28;912;-68
2024/03/16 00:29:42;;;;;;;5.73;2.60;;;;;;;;;;696679;28;2113;-69
2024/03/16 00:30:06;;;;;;;5.70;2.67;;;;;;;;;;697740;28;1416;-69
2024/03/16 00:30:26;;;;;;;5.43;2.72;;;;;;;;;;696312;28;1397;-66
2024/03/16 00:30:48;;;;;;;5.47;2.80;;;;;;;;;;694769;28;2338;-68
2024/03/16 00:31:09;;;;;;;5.72;2.47;;;;;;;;;;695948;28;4255;-69
2024/03/16 00:31:30;;;;;;;6.57;2.40;;;;;;;;;;695597;28;975;-66
2024/03/16 00:31:50;;;;;;;5.27;2.33;;;;;;;;;;695250;28;2341;-69
2024/03/16 00:32:10;;;;;;;5.97;2.40;;;;;;;;;;696397;28;1190;-68
2024/03/16 00:32:34;;;;;;;6.47;2.50;;;;;;;;;;697284;28;994;-69
2024/03/16 00:32:56;;;;;;;5.60;2.45;;;;;;;;;;697281;28;987;-68
2024/03/16 00:33:17;;;;;;;5.57;2.33;;;;;;;;;;694899;28;5930;-69
2024/03/16 00:33:37;;;;;;;6.00;2.30;;;;;;;;;;695108;28;1479;-69
2024/03/16 00:33:58;;;;;;;4.67;2.30;;;;;;;;;;696954;28;1340;-69
2024/03/16 00:34:19;;;;;;;5.03;2.15;;;;;;;;;;694861;28;4224;-69
2024/03/16 00:34:40;;;;;;;5.23;2.10;;;;;;;;;;696407;28;1766;-67
2024/03/16 00:35:03;;;;;;;5.88;2.45;;;;;;;;;;697158;28;931;-68
2024/03/16 00:35:24;;;;;;;4.20;2.00;;;;;;;;;;695226;28;1464;-67
2024/03/16 00:35:44;;;;;;;5.40;2.13;;;;;;;;;;694158;28;2558;-68
2024/03/16 00:36:05;;;;;;;6.53;2.27;;;;;;;;;;698167;28;801;-69
2024/03/16 00:36:25;;;;;;;5.50;2.30;;;;;;;;;;697285;28;1002;-68
2024/03/16 00:36:45;;;;;;;4.53;2.10;;;;;;;;;;696281;28;2891;-68
2024/03/16 00:37:05;;;;;;;4.37;1.90;;;;;;;;;;697033;28;4346;-68
2024/03/16 00:37:27;;;;;;;4.67;2.17;;;;;;;;;;697533;28;1086;-66
2024/03/16 00:37:48;;;;;;;5.28;2.30;;;;;;;;;;695614;28;1994;-67
2024/03/16 00:38:09;;;;;;;5.57;2.17;;;;;;;;;;697501;28;1131;-68
2024/03/16 00:38:30;;;;;;;5.30;2.20;;;;;;;;;;696593;28;1007;-68
2024/03/16 00:38:50;;;;;;;5.63;2.30;;;;;;;;;;695250;28;1642;-69
2024/03/16 00:39:18;;;;;;;5.57;2.25;;;;;;;;;;697212;28;1045;-69
2024/03/16 00:39:38;;;;;;;5.68;2.30;;;;;;;;;;695597;28;1351;-69
2024/03/16 00:39:58;;;;;;;5.07;2.30;;;;;;;;;;699221;28;869;-69
2024/03/16 00:40:19;;;;;;;4.82;2.28;;;;;;;;;;697948;28;4227;-69
2024/03/16 00:40:39;;;;;;;4.20;1.90;;;;;;;;;;695375;28;2397;-66
2024/03/16 00:40:59;;;;;;;4.72;2.08;;;;;;;;;;695562;28;1361;-68
2024/03/16 00:41:20;;;;;;;4.97;2.20;;;;;;;;;;694789;28;1499;-69
2024/03/16 00:41:42;;;;;;;4.50;2.00;;;;;;;;;;692868;28;1787;-69
2024/03/16 00:42:02;;;;;;;4.57;2.03;;;;;;;;;;686927;28;1665;-69
2024/03/16 00:42:22;;;;;;;5.28;2.30;;;;;;;;;;690084;28;1078;-69
2024/03/16 00:42:43;;;;;;;5.93;2.30;;;;;;;;;;687923;28;2305;-69
2024/03/16 00:43:04;;;;;;;5.40;2.10;;;;;;;;;;690234;28;4285;-69
2024/03/16 00:43:24;;;;;;;5.32;2.08;;;;;;;;;;695294;28;821;-69
2024/03/16 00:43:44;;;;;;;3.83;2.10;;;;;;;;;;694380;28;2329;-70
2024/03/16 00:44:05;;;;;;;4.77;2.20;;;;;;;;;;697950;28;1077;-68
2024/03/16 00:44:25;;;;;;;6.37;2.10;;;;;;;;;;697083;28;1086;-69
2024/03/16 00:44:46;;;;;;;4.33;1.90;;;;;;;;;;695095;28;2300;-68
2024/03/16 00:45:06;;;;;;;4.60;2.00;;;;;;;;;;697185;28;789;-66
2024/03/16 00:45:27;;;;;;;6.07;2.20;;;;;;;;;;698873;28;832;-68
2024/03/16 00:45:47;;;;;;;3.88;1.92;;;;;;;;;;692117;28;2179;-68
2024/03/16 00:46:07;;;;;;;4.47;2.00;;;;;;;;;;693232;28;4271;-68
2024/03/16 00:46:28;;;;;;;5.50;1.90;;;;;;;;;;696129;28;959;-69
2024/03/16 00:46:48;;;;;;;4.57;2.00;;;;;;;;;;693442;28;1176;-69
2024/03/16 00:47:09;;;;;;;4.47;2.10;;;;;;;;;;691590;28;1322;-69
2024/03/16 00:47:29;;;;;;;5.78;2.50;;;;;;;;;;690998;28;1067;-70
2024/03/16 00:47:49;;;;;;;6.07;2.13;;;;;;;;;;691817;28;1999;-69
2024/03/16 00:48:12;;;;;;;5.37;1.80;;;;;;;;;;688303;28;3198;-69
2024/03/16 00:48:32;;;;;;;5.68;1.80;;;;;;;;;;688520;28;1393;-68
2024/03/16 00:48:52;;;;;;;5.87;1.80;;;;;;;;;;690805;28;2280;-69
2024/03/16 00:49:12;;;;;;;4.25;1.80;;;;;;;;;;694455;28;4398;-69
2024/03/16 00:49:34;;;;;;;5.20;2.40;;;;;;;;;;693270;28;1981;-68
2024/03/16 00:49:55;;;;;;;5.05;2.40;;;;;;;;;;693432;28;1142;-68
2024/03/16 00:50:15;;;;;;;5.87;2.00;;;;;;;;;;697272;28;1058;-69
2024/03/16 00:50:35;;;;;;;5.87;1.90;;;;;;;;;;695266;28;750;-68
2024/03/16 00:50:55;;;;;;;5.05;2.00;;;;;;;;;;692135;28;1488;-70
2024/03/16 00:51:15;;;;;;;4.13;1.70;;;;;;;;;;693414;28;1364;-67
2024/03/16 00:51:36;;;;;;;4.00;1.77;;;;;;;;;;694576;28;785;-68
2024/03/16 00:51:57;;;;;;;4.97;1.85;;;;;;;;;;694648;28;877;-68
2024/03/16 00:52:17;;;;;;;4.90;1.95;;;;;;;;;;696292;28;4453;-69
2024/03/16 00:52:38;;;;;;;5.22;1.90;;;;;;;;;;697042;28;1506;-68
2024/03/16 00:52:58;;;;;;;4.67;2.10;;;;;;;;;;694648;28;1235;-69
2024/03/16 00:53:19;;;;;;;4.70;2.10;;;;;;;;;;696998;28;802;-69
2024/03/16 00:53:43;;;;;;;4.95;1.80;;;;;;;;;;696081;28;1751;-67
2024/03/16 00:54:03;;;;;;;5.68;2.05;;;;;;;;;;696367;28;956;-69
2024/03/16 00:54:23;;;;;;;5.80;1.90;;;;;;;;;;698235;28;1338;-70
2024/03/16 00:54:44;;;;;;;5.68;1.75;;;;;;;;;;695739;28;1843;-69
2024/03/16 00:55:04;;;;;;;4.60;1.73;;;;;;;;;;694492;28;4478;-68
2024/03/16 00:55:25;;;;;;;4.38;1.90;;;;;;;;;;692024;28;1219;-69
2024/03/16 00:55:45;;;;;;;4.47;1.70;;;;;;;;;;690392;28;1999;-69
2024/03/16 00:56:05;;;;;;;5.37;1.83;;;;;;;;;;691041;28;797;-69
2024/03/16 00:56:25;;;;;;;4.77;2.07;;;;;;;;;;694681;28;1076;-69
2024/03/16 00:56:51;;;;;;;4.35;1.98;;;;;;;;;;692740;28;1105;-69
2024/03/16 00:57:11;;;;;;;5.25;1.85;;;;;;;;;;694527;28;1046;-68
2024/03/16 00:57:31;;;;;;;4.80;1.85;;;;;;;;;;695069;28;1004;-70
2024/03/16 00:57:52;;;;;;;4.30;2.00;;;;;;;;;;694262;28;2273;-67
2024/03/16 00:58:12;;;;;;;4.57;1.83;;;;;;;;;;695647;28;4496;-68
2024/03/16 00:58:32;;;;;;;4.30;2.00;;;;;;;;;;696635;28;987;-69
2024/03/16 00:58:53;;;;;;;4.43;2.00;;;;;;;;;;695696;28;1880;-68
2024/03/16 00:59:13;;;;;;;4.57;1.90;;;;;;;;;;697254;28;821;-68
2024/03/16 00:59:33;;;;;;;5.80;2.10;;;;;;;;;;697156;28;892;-69
2024/03/16 00:59:54;;;;;;;4.70;1.80;;;;;;;;;;691696;28;2332;-69
2024/03/16 01:00:15;;;;;;;5.95;2.00;;;;;;;;;;693930;28;1349;-68
2024/03/16 01:00:35;;;;;;;5.10;2.00;;;;;;;;;;697110;28;901;-69
2024/03/16 01:00:55;;;;;;;4.50;1.80;;;;;;;;;;695465;28;2186;-69
2024/03/16 01:01:15;;;;;;;4.13;1.40;;;;;;;;;;694923;28;4459;-68
2024/03/16 01:01:37;;;;;;;4.10;1.45;;;;;;;;;;698414;28;1196;-69
2024/03/16 01:01:59;;;;;;;4.28;1.48;;;;;;;;;;696440;28;1102;-68
2024/03/16 01:02:20;;;;;;;4.00;1.40;;;;;;;;;;697065;28;1471;-69
2024/03/16 01:02:43;;;;;;;4.30;1.58;;;;;;;;;;696743;28;1015;-68
2024/03/16 01:03:05;;;;;;;4.90;1.60;;;;;;;;;;695901;28;1113;-68
2024/03/16 01:03:27;;;;;;;4.38;1.58;;;;;;;;;;697433;28;1319;-69
2024/03/16 01:03:49;;;;;;;4.78;1.52;;;;;;;;;;694290;28;2259;-68
2024/03/16 01:04:12;;;;;;;5.22;1.60;;;;;;;;;;694776;28;4507;-68
2024/03/16 01:04:36;;;;;;;5.40;1.60;;;;;;;;;;697341;28;908;-68
2024/03/16 01:04:57;;;;;;;5.40;1.60;;;;;;;;;;696913;28;1960;-69
2024/03/16 01:05:17;;;;;;;4.13;1.40;;;;;;;;;;695302;28;4748;-68
2024/03/16 01:05:38;;;;;;;2.90;1.20;;;;;;;;;;695909;28;2373;-69
2024/03/16 01:05:58;;;;;;;4.43;1.30;;;;;;;;;;697698;28;855;-68
2024/03/16 01:06:18;;;;;;;3.40;1.35;;;;;;;;;;697839;28;955;-68
2024/03/16 01:06:39;;;;;;;3.30;1.37;;;;;;;;;;695072;28;2294;-68
2024/03/16 01:07:00;;;;;;;2.80;1.15;;;;;;;;;;693819;28;4325;-65
2024/03/16 01:07:21;;;;;;;3.50;1.10;;;;;;;;;;694710;28;936;-68
2024/03/16 01:07:43;;;;;;;2.20;1.00;;;;;;;;;;694285;28;1581;-69
2024/03/16 01:08:04;;;;;;;2.83;0.98;;;;;;;;;;698686;28;861;-68
2024/03/16 01:08:24;;;;;;;2.87;1.10;;;;;;;;;;696899;28;872;-68
2024/03/16 01:08:45;;;;;;;3.57;1.10;;;;;;;;;;694135;28;2247;-68
2024/03/16 01:09:06;;;;;;;2.35;0.93;;;;;;;;;;698290;28;1152;-68
2024/03/16 01:09:26;;;;;;;3.10;1.10;;;;;;;;;;698652;28;845;-66
2024/03/16 01:09:46;;;;;;;3.23;1.10;;;;;;;;;;696267;28;2253;-68
2024/03/16 01:10:07;;;;;;;3.33;1.10;;;;;;;;;;696384;28;4306;-68
2024/03/16 01:10:27;;;;;;;3.63;1.13;;;;;;;;;;696411;28;963;-69
2024/03/16 01:10:54;;;;;;;3.13;0.97;;;;;;;;;;695938;28;1040;-69
2024/03/16 01:11:14;;;;;;;2.63;0.73;;;;;;;;;;697502;28;1235;-68
2024/03/16 01:11:35;;;;;;;2.60;0.90;;;;;;;;;;697579;28;933;-68
2024/03/16 01:11:55;;;;;;;3.70;0.90;;;;;;;;;;696928;28;942;-68
2024/03/16 01:12:15;;;;;;;2.50;0.90;;;;;;;;;;696734;28;1513;-69
2024/03/16 01:12:35;;;;;;;2.50;0.93;;;;;;;;;;696864;28;4655;-69
2024/03/16 01:12:56;;;;;;;1.83;0.83;;;;;;;;;;693488;28;1426;-69
2024/03/16 01:13:16;;;;;;;2.50;0.83;;;;;;;;;;697442;28;4239;-69
2024/03/16 01:13:38;;;;;;;2.45;0.82;;;;;;;;;;695245;28;885;-68
2024/03/16 01:13:58;;;;;;;4.32;1.00;;;;;;;;;;693999;28;998;-69
2024/03/16 01:14:19;;;;;;;3.33;0.83;;;;;;;;;;694750;28;1007;-68
2024/03/16 01:14:40;;;;;;;3.00;0.80;;;;;;;;;;693878;28;1107;-68
2024/03/16 01:15:00;;;;;;;3.38;0.80;;;;;;;;;;695639;28;984;-68
2024/03/16 01:15:21;;;;;;;2.70;0.80;;;;;;;;;;697720;28;1348;-68
2024/03/16 01:15:41;;;;;;;2.17;0.70;;;;;;;;;;694571;28;1163;-69
2024/03/16 01:16:02;;;;;;;1.58;0.80;;;;;;;;;;696077;28;4498;-68
2024/03/16 01:16:23;;;;;;;1.93;0.80;;;;;;;;;;696691;28;936;-68
2024/03/16 01:16:43;;;;;;;1.73;0.70;;;;;;;;;;696332;28;1036;-67
2024/03/16 01:17:03;;;;;;;1.50;0.80;;;;;;;;;;696701;28;1102;-69
2024/03/16 01:17:24;;;;;;;2.13;0.80;;;;;;;;;;693835;28;1367;-69
2024/03/16 01:17:44;;;;;;;2.97;0.80;;;;;;;;;;696518;28;1388;-69
2024/03/16 01:18:05;;;;;;;2.50;0.73;;;;;;;;;;697235;28;739;-68
2024/03/16 01:18:25;;;;;;;1.97;0.80;;;;;;;;;;696561;28;917;-68
2024/03/16 01:18:45;;;;;;;2.40;0.80;;;;;;;;;;694839;28;1000;-66
2024/03/16 01:19:05;;;;;;;3.50;0.90;;;;;;;;;;696665;28;4405;-68
2024/03/16 01:19:26;;;;;;;2.20;0.80;;;;;;;;;;698435;28;857;-69
2024/03/16 01:19:46;;;;;;;2.90;1.00;;;;;;;;;;697123;28;933;-68
2024/03/16 01:20:08;;;;;;;2.83;0.88;;;;;;;;;;698450;28;952;-68
2024/03/16 01:20:28;;;;;;;3.08;1.00;;;;;;;;;;697906;28;1251;-68
2024/03/16 01:20:48;;;;;;;3.65;1.00;;;;;;;;;;695942;28;1114;-67
2024/03/16 01:21:09;;;;;;;4.03;1.10;;;;;;;;;;696995;28;885;-68
2024/03/16 01:21:30;;;;;;;2.55;1.10;;;;;;;;;;698164;28;967;-69
2024/03/16 01:21:50;;;;;;;2.63;0.70;;;;;;;;;;696684;28;1036;-68
2024/03/16 01:22:11;;;;;;;3.35;0.82;;;;;;;;;;696767;28;4621;-68
2024/03/16 01:22:32;;;;;;;2.50;0.77;;;;;;;;;;698108;28;823;-68
2024/03/16 01:22:52;;;;;;;3.00;0.80;;;;;;;;;;697543;28;1254;-67
2024/03/16 01:23:16;;;;;;;2.40;0.80;;;;;;;;;;698160;28;758;-68
2024/03/16 01:23:37;;;;;;;2.05;0.77;;;;;;;;;;696538;28;908;-68
2024/03/16 01:23:57;;;;;;;2.03;0.80;;;;;;;;;;696299;28;1117;-69
2024/03/16 01:24:18;;;;;;;2.50;0.80;;;;;;;;;;696224;28;824;-69
2024/03/16 01:24:38;;;;;;;3.70;0.80;;;;;;;;;;695704;28;1081;-68
2024/03/16 01:24:58;;;;;;;2.20;0.77;;;;;;;;;;696549;28;877;-67
2024/03/16 01:25:19;;;;;;;2.92;0.80;;;;;;;;;;695935;28;4226;-68
2024/03/16 01:25:40;;;;;;;2.33;0.80;;;;;;;;;;695820;28;1087;-69
2024/03/16 01:26:00;;;;;;;2.67;0.75;;;;;;;;;;697135;28;838;-69
2024/03/16 01:26:21;;;;;;;2.58;0.80;;;;;;;;;;695633;28;901;-68
2024/03/16 01:26:41;;;;;;;3.53;0.80;;;;;;;;;;695857;28;899;-68
2024/03/16 01:27:01;;;;;;;3.83;0.93;;;;;;;;;;695796;28;1322;-68
2024/03/16 01:27:22;;;;;;;3.38;0.93;;;;;;;;;;696545;28;1046;-68
2024/03/16 01:27:42;;;;;;;2.97;0.80;;;;;;;;;;696216;28;900;-68
2024/03/16 01:28:02;;;;;;;2.33;0.70;;;;;;;;;;694097;28;4550;-68
2024/03/16 01:28:22;;;;;;;2.85;0.73;;;;;;;;;;697797;28;932;-67
2024/03/16 01:28:43;;;;;;;3.17;0.87;;;;;;;;;;696344;28;924;-67
2024/03/16 01:29:04;;;;;;;2.20;0.87;;;;;;;;;;696866;28;1300;-69
2024/03/16 01:29:24;;;;;;;2.65;0.75;;;;;;;;;;697539;28;943;-68
2024/03/16 01:29:46;;;;;;;2.67;0.60;;;;;;;;;;695262;28;1931;-67
2024/03/16 01:30:06;;;;;;;2.50;0.70;;;;;;;;;;698157;28;872;-67
2024/03/16 01:30:27;;;;;;;2.40;0.70;;;;;;;;;;697955;28;912;-66
2024/03/16 01:30:47;;;;;;;2.83;0.70;;;;;;;;;;696696;28;1046;-68
2024/03/16 01:31:08;;;;;;;3.13;0.90;;;;;;;;;;696034;28;4320;-67
2024/03/16 01:31:29;;;;;;;4.35;0.80;;;;;;;;;;694941;28;1034;-68
2024/03/16 01:31:49;;;;;;;2.88;0.80;;;;;;;;;;697078;28;936;-68
2024/03/16 01:32:10;;;;;;;2.63;0.70;;;;;;;;;;695906;28;916;-68
2024/03/16 01:32:30;;;;;;;3.47;0.70;;;;;;;;;;696805;28;1027;-68
2024/03/16 01:32:50;;;;;;;2.80;0.70;;;;;;;;;;695362;28;1062;-68
2024/03/16 01:33:11;;;;;;;3.27;0.80;;;;;;;;;;696329;28;1191;-69
2024/03/16 01:33:31;;;;;;;3.50;0.93;;;;;;;;;;696052;28;932;-67
2024/03/16 01:33:51;;;;;;;2.67;0.80;;;;;;;;;;694853;28;1029;-67
2024/03/16 01:34:11;;;;;;;2.72;0.70;;;;;;;;;;695331;28;4249;-68
2024/03/16 01:34:32;;;;;;;3.73;0.80;;;;;;;;;;696624;28;785;-68
2024/03/16 01:34:52;;;;;;;3.67;0.80;;;;;;;;;;696007;28;1022;-69
2024/03/16 01:35:12;;;;;;;3.22;0.80;;;;;;;;;;694156;28;781;-68
2024/03/16 01:35:32;;;;;;;2.80;0.80;;;;;;;;;;691362;28;845;-67
2024/03/16 01:35:56;;;;;;;2.40;0.77;;;;;;;;;;689522;28;1186;-68
2024/03/16 01:36:16;;;;;;;1.63;0.70;;;;;;;;;;691409;28;861;-68
2024/03/16 01:36:36;;;;;;;2.65;0.80;;;;;;;;;;694531;28;956;-68
2024/03/16 01:36:57;;;;;;;2.73;0.83;;;;;;;;;;693522;28;1258;-68
2024/03/16 01:37:17;;;;;;;2.50;0.70;;;;;;;;;;693061;28;4575;-67
2024/03/16 01:37:37;;;;;;;3.45;1.10;;;;;;;;;;691073;28;1257;-68
2024/03/16 01:37:58;;;;;;;2.37;1.00;;;;;;;;;;690304;28;1033;-67
2024/03/16 01:38:18;;;;;;;3.00;0.80;;;;;;;;;;692297;28;872;-67
2024/03/16 01:38:39;;;;;;;3.30;0.70;;;;;;;;;;693924;28;822;-68
2024/03/16 01:38:59;;;;;;;2.10;0.80;;;;;;;;;;693967;28;1236;-67
2024/03/16 01:39:19;;;;;;;3.40;0.90;;;;;;;;;;695820;28;1250;-68
2024/03/16 01:39:39;;;;;;;4.27;0.80;;;;;;;;;;697810;28;1546;-66
2024/03/16 01:40:00;;;;;;;4.03;0.82;;;;;;;;;;698880;28;4843;-68
2024/03/16 01:40:24;;;;;;;2.93;0.90;;;;;;;;;;697704;28;781;-68
2024/03/16 01:40:44;;;;;;;2.63;0.77;;;;;;;;;;699369;28;937;-69
2024/03/16 01:41:05;;;;;;;2.47;0.80;;;;;;;;;;698257;28;1038;-67
2024/03/16 01:41:25;;;;;;;2.80;0.80;;;;;;;;;;694182;28;1217;-67
2024/03/16 01:41:46;;;;;;;4.57;0.90;;;;;;;;;;693775;28;1103;-68
2024/03/16 01:42:06;;;;;;;3.57;0.90;;;;;;;;;;695388;28;888;-68
2024/03/16 01:42:27;;;;;;;4.87;0.90;;;;;;;;;;694306;28;819;-68
2024/03/16 01:42:47;;;;;;;3.67;0.80;;;;;;;;;;693714;28;1350;-68
2024/03/16 01:43:10;;;;;;;2.58;0.80;;;;;;;;;;694349;28;4501;-67
2024/03/16 01:43:30;;;;;;;2.45;0.75;;;;;;;;;;694863;28;790;-68
2024/03/16 01:43:51;;;;;;;2.08;0.88;;;;;;;;;;692691;28;989;-68
2024/03/16 01:44:12;;;;;;;2.92;0.90;;;;;;;;;;693296;28;949;-68
2024/03/16 01:44:33;;;;;;;2.85;0.80;;;;;;;;;;692459;28;3252;-67
2024/03/16 01:45:06;;;;;;;2.78;0.80;;;;;;;;;;691436;28;1481;-67
2024/03/16 01:45:28;;;;;;;3.20;0.80;;;;;;;;;;693578;28;873;-67
2024/03/16 01:45:48;;;;;;;2.72;0.90;;;;;;;;;;692098;28;1508;-69
2024/03/16 01:46:15;;;;;;;3.35;0.93;;;;;;;;;;694098;28;5427;-68
2024/03/16 01:46:39;;;;;;;4.25;0.85;;;;;;;;;;696906;28;845;-67
2024/03/16 01:47:01;;;;;;;3.17;0.68;;;;;;;;;;693970;28;997;-68
2024/03/16 01:47:22;;;;;;;2.63;0.80;;;;;;;;;;694537;28;1810;-67
2024/03/16 01:47:44;;;;;;;2.53;0.85;;;;;;;;;;693208;28;2276;-67
2024/03/16 01:48:09;;;;;;;2.55;0.90;;;;;;;;;;691133;28;854;-68
2024/03/16 01:48:30;;;;;;;2.38;0.80;;;;;;;;;;691448;28;1312;-68
2024/03/16 01:48:54;;;;;;;2.40;0.90;;;;;;;;;;694309;28;1095;-67
2024/03/16 01:49:15;;;;;;;3.10;0.82;;;;;;;;;;697728;28;4446;-67
2024/03/16 01:49:37;;;;;;;3.38;1.10;;;;;;;;;;696395;28;1918;-67
2024/03/16 01:49:59;;;;;;;3.63;1.10;;;;;;;;;;695364;28;1835;-68
2024/03/16 01:50:20;;;;;;;3.08;0.80;;;;;;;;;;695901;28;1238;-66
2024/03/16 01:50:41;;;;;;;1.48;0.60;;;;;;;;;;690381;28;1917;-64
2024/03/16 01:51:03;;;;;;;2.05;0.60;;;;;;;;;;691483;28;1451;-65
2024/03/16 01:51:25;;;;;;;2.83;0.73;;;;;;;;;;690740;28;873;-66
2024/03/16 01:51:46;;;;;;;3.00;0.80;;;;;;;;;;691439;28;1006;-68
2024/03/16 01:52:07;;;;;;;3.83;1.10;;;;;;;;;;691892;28;4346;-68
2024/03/16 01:52:28;;;;;;;2.55;1.00;;;;;;;;;;696693;28;862;-67
2024/03/16 01:52:49;;;;;;;2.63;0.90;;;;;;;;;;694856;28;2019;-68
2024/03/16 01:53:11;;;;;;;2.72;0.88;;;;;;;;;;697925;28;905;-68
2024/03/16 01:53:33;;;;;;;3.58;0.80;;;;;;;;;;697725;28;1104;-67
2024/03/16 01:53:54;;;;;;;3.70;0.85;;;;;;;;;;693823;28;1348;-68
2024/03/16 01:54:15;;;;;;;2.85;0.80;;;;;;;;;;696882;28;838;-67
2024/03/16 01:54:37;;;;;;;2.70;0.80;;;;;;;;;;696037;28;1412;-67
2024/03/16 01:54:58;;;;;;;2.85;0.75;;;;;;;;;;695555;28;1128;-66
2024/03/16 01:55:19;;;;;;;2.95;0.85;;;;;;;;;;695550;28;4302;-67
2024/03/16 01:55:40;;;;;;;3.47;0.98;;;;;;;;;;695709;28;1053;-65
2024/03/16 01:56:00;;;;;;;3.53;0.90;;;;;;;;;;695423;28;1051;-68
2024/03/16 01:56:21;;;;;;;3.45;0.90;;;;;;;;;;694115;28;1255;-67
2024/03/16 01:56:41;;;;;;;2.00;0.70;;;;;;;;;;692253;28;1364;-67
2024/03/16 01:57:02;;;;;;;3.00;0.70;;;;;;;;;;693595;28;805;-66
2024/03/16 01:57:22;;;;;;;2.77;0.80;;;;;;;;;;694975;28;1222;-68
2024/03/16 01:57:43;;;;;;;2.37;0.80;;;;;;;;;;693656;28;1019;-67
2024/03/16 01:58:07;;;;;;;2.30;0.80;;;;;;;;;;695379;28;4494;-68
2024/03/16 01:58:27;;;;;;;2.35;0.80;;;;;;;;;;696037;28;4867;-67
2024/03/16 01:58:48;;;;;;;2.87;0.90;;;;;;;;;;693697;28;1080;-67
2024/03/16 01:59:09;;;;;;;3.05;0.80;;;;;;;;;;695882;28;1448;-67
2024/03/16 01:59:29;;;;;;;2.80;0.70;;;;;;;;;;695120;28;833;-67
2024/03/16 01:59:50;;;;;;;2.37;0.70;;;;;;;;;;695316;28;1000;-66
2024/03/16 02:00:11;;;;;;;2.93;1.10;;;;;;;;;;696913;28;1023;-68
2024/03/16 02:00:32;;;;;;;3.60;1.08;;;;;;;;;;696217;28;805;-67
2024/03/16 02:00:53;;;;;;;2.05;0.95;;;;;;;;;;696369;28;1068;-68
2024/03/16 02:01:13;;;;;;;2.85;1.00;;;;;;;;;;699280;28;4402;-68
2024/03/16 02:01:33;;;;;;;2.73;0.80;;;;;;;;;;699035;28;762;-68
2024/03/16 02:01:54;;;;;;;2.27;0.80;;;;;;;;;;698133;28;1094;-64
2024/03/16 02:02:24;;;;;;;3.58;0.95;;;;;;;;;;700633;28;975;-68
2024/03/16 02:02:44;;;;;;;3.03;0.85;;;;;;;;;;696722;28;1108;-67
2024/03/16 02:03:04;;;;;;;2.90;0.80;;;;;;;;;;698631;28;916;-68
2024/03/16 02:03:25;;;;;;;3.55;0.90;;;;;;;;;;696369;28;1128;-68
2024/03/16 02:03:46;;;;;;;3.97;0.93;;;;;;;;;;694615;28;1751;-68
2024/03/16 02:04:06;;;;;;;3.47;0.90;;;;;;;;;;694902;28;4277;-68
2024/03/16 02:04:27;;;;;;;3.05;0.93;;;;;;;;;;696447;28;885;-69
2024/03/16 02:04:47;;;;;;;3.33;0.90;;;;;;;;;;694929;28;941;-67
2024/03/16 02:05:08;;;;;;;3.53;0.90;;;;;;;;;;695848;28;972;-67
2024/03/16 02:05:28;;;;;;;2.17;0.70;;;;;;;;;;696219;28;937;-66
2024/03/16 02:05:49;;;;;;;2.38;0.80;;;;;;;;;;695266;28;972;-67
2024/03/16 02:06:09;;;;;;;3.50;1.00;;;;;;;;;;697490;28;948;-67
2024/03/16 02:06:29;;;;;;;3.10;0.80;;;;;;;;;;698136;28;1257;-68
2024/03/16 02:06:49;;;;;;;2.95;0.80;;;;;;;;;;695834;28;940;-67
2024/03/16 02:07:10;;;;;;;1.73;0.80;;;;;;;;;;695190;28;4331;-65
2024/03/16 02:07:31;;;;;;;2.00;0.70;;;;;;;;;;697949;28;821;-68
2024/03/16 02:07:51;;;;;;;2.58;0.80;;;;;;;;;;696746;28;1060;-68
2024/03/16 02:08:11;;;;;;;3.07;0.70;;;;;;;;;;697836;28;940;-67
2024/03/16 02:08:32;;;;;;;2.27;0.70;;;;;;;;;;696564;28;994;-65
2024/03/16 02:08:52;;;;;;;2.33;0.65;;;;;;;;;;694910;28;944;-68
2024/03/16 02:09:12;;;;;;;2.57;0.90;;;;;;;;;;697024;28;877;-67
2024/03/16 02:09:33;;;;;;;2.47;0.80;;;;;;;;;;693842;28;1909;-68